sensor_id;sensor_type;location;lat;lon;timestamp;temperature;humidity
25112;DHT22;13092;51.996;4.458;2023-09-18T00:00:57;20.60;99.90
25112;DHT22;13092;51.996;4.458;2023-09-18T00:03:26;20.50;99.90
25112;DHT22;13092;51.996;4.458;2023-09-18T00:05:55;20.50;99.90
25112;DHT22;13092;51.996;4.458;2023-09-18T00:08:23;20.40;99.90
25112;DHT22;13092;51.996;4.458;2023-09-18T00:10:53;20.50;99.90
25112;DHT22;13092;51.996;4.458;2023-09-18T00:13:22;20.50;99.90
25112;DHT22;13092;51.996;4.458;2023-09-18T00:15:55;20.60;99.90
25112;DHT22;13092;51.996;4.458;2023-09-18T00:18:27;20.60;99.90
25112;DHT22;13092;51.996;4.458;2023-09-18T00:20:56;20.60;99.90
25112;DHT22;13092;51.996;4.458;2023-09-18T00:23:24;20.60;99.90
25112;DHT22;13092;51.996;4.458;2023-09-18T00:25:53;20.60;99.90
25112;DHT22;13092;51.996;4.458;2023-09-18T00:28:21;20.70;99.90
25112;DHT22;13092;51.996;4.458;2023-09-18T00:30:49;20.70;99.90
25112;DHT22;13092;51.996;4.458;2023-09-18T00:33:18;20.80;99.90
25112;DHT22;13092;51.996;4.458;2023-09-18T00:35:49;20.70;99.90
25112;DHT22;13092;51.996;4.458;2023-09-18T00:38:18;20.80;99.90
25112;DHT22;13092;51.996;4.458;2023-09-18T00:40:46;20.80;99.90
25112;DHT22;13092;51.996;4.458;2023-09-18T00:43:15;20.80;99.90
25112;DHT22;13092;51.996;4.458;2023-09-18T00:45:45;20.80;99.90
25112;DHT22;13092;51.996;4.458;2023-09-18T00:48:15;20.80;99.90
25112;DHT22;13092;51.996;4.458;2023-09-18T00:50:44;20.80;99.90
25112;DHT22;13092;51.996;4.458;2023-09-18T00:53:19;20.80;99.90
25112;DHT22;13092;51.996;4.458;2023-09-18T00:55:49;20.80;99.90
25112;DHT22;13092;51.996;4.458;2023-09-18T00:58:18;20.70;99.90
25112;DHT22;13092;51.996;4.458;2023-09-18T01:00:46;20.70;99.90
25112;DHT22;13092;51.996;4.458;2023-09-18T01:03:18;20.70;99.90
25112;DHT22;13092;51.996;4.458;2023-09-18T01:05:47;20.70;99.90
25112;DHT22;13092;51.996;4.458;2023-09-18T01:08:17;20.70;99.90
25112;DHT22;13092;51.996;4.458;2023-09-18T01:10:48;20.60;99.90
25112;DHT22;13092;51.996;4.458;2023-09-18T01:13:25;20.70;99.90
25112;DHT22;13092;51.996;4.458;2023-09-18T01:16:02;20.70;99.90
25112;DHT22;13092;51.996;4.458;2023-09-18T01:18:31;20.70;99.90
25112;DHT22;13092;51.996;4.458;2023-09-18T01:21:02;20.70;99.90
25112;DHT22;13092;51.996;4.458;2023-09-18T01:23:31;20.90;99.90
25112;DHT22;13092;51.996;4.458;2023-09-18T01:25:59;20.70;99.90
25112;DHT22;13092;51.996;4.458;2023-09-18T01:28:28;20.90;99.90
25112;DHT22;13092;51.996;4.458;2023-09-18T01:30:56;20.70;99.90
25112;DHT22;13092;51.996;4.458;2023-09-18T01:33:25;20.70;99.90
25112;DHT22;13092;51.996;4.458;2023-09-18T01:35:55;20.80;99.90
25112;DHT22;13092;51.996;4.458;2023-09-18T01:38:23;20.70;99.90
25112;DHT22;13092;51.996;4.458;2023-09-18T01:40:54;20.50;99.90
25112;DHT22;13092;51.996;4.458;2023-09-18T01:43:22;20.70;99.90
25112;DHT22;13092;51.996;4.458;2023-09-18T01:45:50;20.70;99.90
25112;DHT22;13092;51.996;4.458;2023-09-18T01:48:19;20.70;99.90
25112;DHT22;13092;51.996;4.458;2023-09-18T01:50:47;20.70;99.90
25112;DHT22;13092;51.996;4.458;2023-09-18T01:53:16;20.70;99.90
25112;DHT22;13092;51.996;4.458;2023-09-18T01:55:44;20.80;99.90
25112;DHT22;13092;51.996;4.458;2023-09-18T01:58:13;20.80;99.90
25112;DHT22;13092;51.996;4.458;2023-09-18T02:00:43;21.00;99.90
25112;DHT22;13092;51.996;4.458;2023-09-18T02:03:11;20.80;99.90
25112;DHT22;13092;51.996;4.458;2023-09-18T02:06:00;20.90;99.90
25112;DHT22;13092;51.996;4.458;2023-09-18T02:08:29;21.00;99.90
25112;DHT22;13092;51.996;4.458;2023-09-18T02:10:57;21.10;99.90
25112;DHT22;13092;51.996;4.458;2023-09-18T02:13:27;21.00;99.90
25112;DHT22;13092;51.996;4.458;2023-09-18T02:15:55;20.90;99.90
25112;DHT22;13092;51.996;4.458;2023-09-18T02:18:24;20.90;99.90
25112;DHT22;13092;51.996;4.458;2023-09-18T02:20:52;21.00;99.90
25112;DHT22;13092;51.996;4.458;2023-09-18T02:23:21;21.00;99.90
25112;DHT22;13092;51.996;4.458;2023-09-18T02:25:55;21.00;99.90
25112;DHT22;13092;51.996;4.458;2023-09-18T02:28:23;21.00;99.90
25112;DHT22;13092;51.996;4.458;2023-09-18T02:30:53;21.00;99.90
25112;DHT22;13092;51.996;4.458;2023-09-18T02:33:22;21.00;99.90
25112;DHT22;13092;51.996;4.458;2023-09-18T02:35:50;21.00;99.90
25112;DHT22;13092;51.996;4.458;2023-09-18T02:38:18;21.10;99.90
25112;DHT22;13092;51.996;4.458;2023-09-18T02:40:46;21.10;99.90
25112;DHT22;13092;51.996;4.458;2023-09-18T02:43:14;21.20;99.90
25112;DHT22;13092;51.996;4.458;2023-09-18T02:45:42;21.20;99.90
25112;DHT22;13092;51.996;4.458;2023-09-18T02:48:13;21.20;99.90
25112;DHT22;13092;51.996;4.458;2023-09-18T02:50:42;21.20;99.90
25112;DHT22;13092;51.996;4.458;2023-09-18T02:53:16;21.20;99.90
25112;DHT22;13092;51.996;4.458;2023-09-18T02:55:45;21.20;99.90
25112;DHT22;13092;51.996;4.458;2023-09-18T02:58:13;21.20;99.90
25112;DHT22;13092;51.996;4.458;2023-09-18T03:00:43;21.20;99.90
25112;DHT22;13092;51.996;4.458;2023-09-18T03:03:14;21.30;99.90
25112;DHT22;13092;51.996;4.458;2023-09-18T03:05:43;21.20;99.90
25112;DHT22;13092;51.996;4.458;2023-09-18T03:08:14;21.40;99.90
25112;DHT22;13092;51.996;4.458;2023-09-18T03:10:43;21.30;99.90
25112;DHT22;13092;51.996;4.458;2023-09-18T03:13:14;21.30;99.90
25112;DHT22;13092;51.996;4.458;2023-09-18T03:15:45;21.20;99.90
25112;DHT22;13092;51.996;4.458;2023-09-18T03:18:16;21.20;99.90
25112;DHT22;13092;51.996;4.458;2023-09-18T03:20:44;21.20;99.90
25112;DHT22;13092;51.996;4.458;2023-09-18T03:23:12;21.20;99.90
25112;DHT22;13092;51.996;4.458;2023-09-18T03:25:41;21.20;99.90
25112;DHT22;13092;51.996;4.458;2023-09-18T03:28:17;21.40;99.90
25112;DHT22;13092;51.996;4.458;2023-09-18T03:30:45;21.30;99.90
25112;DHT22;13092;51.996;4.458;2023-09-18T03:33:15;21.20;99.90
25112;DHT22;13092;51.996;4.458;2023-09-18T03:35:46;21.20;99.90
25112;DHT22;13092;51.996;4.458;2023-09-18T03:38:16;21.20;99.90
25112;DHT22;13092;51.996;4.458;2023-09-18T03:40:45;21.20;99.90
25112;DHT22;13092;51.996;4.458;2023-09-18T03:43:13;21.10;99.90
25112;DHT22;13092;51.996;4.458;2023-09-18T03:45:42;21.10;99.90
25112;DHT22;13092;51.996;4.458;2023-09-18T03:48:10;21.10;99.90
25112;DHT22;13092;51.996;4.458;2023-09-18T03:50:40;21.10;99.90
25112;DHT22;13092;51.996;4.458;2023-09-18T03:53:09;21.10;99.90
25112;DHT22;13092;51.996;4.458;2023-09-18T03:55:37;21.20;99.90
25112;DHT22;13092;51.996;4.458;2023-09-18T03:58:06;21.20;99.90
25112;DHT22;13092;51.996;4.458;2023-09-18T04:00:34;21.10;99.90
25112;DHT22;13092;51.996;4.458;2023-09-18T04:03:03;21.10;99.90
25112;DHT22;13092;51.996;4.458;2023-09-18T04:05:31;21.10;99.90
25112;DHT22;13092;51.996;4.458;2023-09-18T04:08:01;21.10;99.90
25112;DHT22;13092;51.996;4.458;2023-09-18T04:10:30;21.10;99.90
25112;DHT22;13092;51.996;4.458;2023-09-18T04:12:59;21.10;99.90
25112;DHT22;13092;51.996;4.458;2023-09-18T04:15:28;21.10;99.90
25112;DHT22;13092;51.996;4.458;2023-09-18T04:17:57;21.10;99.90
25112;DHT22;13092;51.996;4.458;2023-09-18T04:20:26;21.10;99.90
25112;DHT22;13092;51.996;4.458;2023-09-18T04:23:20;21.10;99.90
25112;DHT22;13092;51.996;4.458;2023-09-18T04:25:50;21.10;99.90
25112;DHT22;13092;51.996;4.458;2023-09-18T04:28:20;21.10;99.90
25112;DHT22;13092;51.996;4.458;2023-09-18T04:30:49;21.10;99.90
25112;DHT22;13092;51.996;4.458;2023-09-18T04:33:17;21.10;99.90
25112;DHT22;13092;51.996;4.458;2023-09-18T04:35:45;21.10;99.90
25112;DHT22;13092;51.996;4.458;2023-09-18T04:38:14;21.10;99.90
25112;DHT22;13092;51.996;4.458;2023-09-18T04:40:45;21.10;99.90
25112;DHT22;13092;51.996;4.458;2023-09-18T04:43:15;21.10;99.90
25112;DHT22;13092;51.996;4.458;2023-09-18T04:45:44;21.20;99.90
25112;DHT22;13092;51.996;4.458;2023-09-18T04:48:13;21.10;99.90
25112;DHT22;13092;51.996;4.458;2023-09-18T04:50:41;21.10;99.90
25112;DHT22;13092;51.996;4.458;2023-09-18T04:53:09;21.10;99.90
25112;DHT22;13092;51.996;4.458;2023-09-18T04:55:38;21.10;99.90
25112;DHT22;13092;51.996;4.458;2023-09-18T04:58:07;21.00;99.90
25112;DHT22;13092;51.996;4.458;2023-09-18T05:00:35;21.00;99.90
25112;DHT22;13092;51.996;4.458;2023-09-18T05:03:04;21.10;99.90
25112;DHT22;13092;51.996;4.458;2023-09-18T05:05:33;21.10;99.90
25112;DHT22;13092;51.996;4.458;2023-09-18T05:08:01;21.20;99.90
25112;DHT22;13092;51.996;4.458;2023-09-18T05:10:31;21.10;99.90
25112;DHT22;13092;51.996;4.458;2023-09-18T05:12:59;21.20;99.90
25112;DHT22;13092;51.996;4.458;2023-09-18T05:15:34;21.10;99.90
25112;DHT22;13092;51.996;4.458;2023-09-18T05:18:02;21.10;99.90
25112;DHT22;13092;51.996;4.458;2023-09-18T05:20:31;21.10;99.90
25112;DHT22;13092;51.996;4.458;2023-09-18T05:23:01;21.10;99.90
25112;DHT22;13092;51.996;4.458;2023-09-18T05:25:34;21.10;99.90
25112;DHT22;13092;51.996;4.458;2023-09-18T05:28:05;21.10;99.90
25112;DHT22;13092;51.996;4.458;2023-09-18T05:30:35;21.10;99.90
25112;DHT22;13092;51.996;4.458;2023-09-18T05:33:06;21.00;99.90
25112;DHT22;13092;51.996;4.458;2023-09-18T05:35:40;21.10;99.90
25112;DHT22;13092;51.996;4.458;2023-09-18T05:38:08;21.30;99.90
25112;DHT22;13092;51.996;4.458;2023-09-18T05:40:38;21.10;99.90
25112;DHT22;13092;51.996;4.458;2023-09-18T05:43:06;21.20;99.90
25112;DHT22;13092;51.996;4.458;2023-09-18T05:45:36;21.20;99.90
25112;DHT22;13092;51.996;4.458;2023-09-18T05:48:05;21.20;99.90
25112;DHT22;13092;51.996;4.458;2023-09-18T05:50:34;21.20;99.90
25112;DHT22;13092;51.996;4.458;2023-09-18T05:53:03;21.10;99.90
25112;DHT22;13092;51.996;4.458;2023-09-18T05:55:32;21.10;99.90
25112;DHT22;13092;51.996;4.458;2023-09-18T05:58:02;21.10;99.90
25112;DHT22;13092;51.996;4.458;2023-09-18T06:00:31;21.10;99.90
25112;DHT22;13092;51.996;4.458;2023-09-18T06:03:02;21.10;99.90
25112;DHT22;13092;51.996;4.458;2023-09-18T06:05:32;21.10;99.90
25112;DHT22;13092;51.996;4.458;2023-09-18T06:08:01;21.10;99.90
25112;DHT22;13092;51.996;4.458;2023-09-18T06:10:30;21.00;99.90
25112;DHT22;13092;51.996;4.458;2023-09-18T06:12:58;21.00;99.90
25112;DHT22;13092;51.996;4.458;2023-09-18T06:15:31;21.00;99.90
25112;DHT22;13092;51.996;4.458;2023-09-18T06:18:01;21.00;99.90
25112;DHT22;13092;51.996;4.458;2023-09-18T06:20:30;21.00;99.90
25112;DHT22;13092;51.996;4.458;2023-09-18T06:22:58;20.90;99.90
25112;DHT22;13092;51.996;4.458;2023-09-18T06:25:27;20.90;99.90
25112;DHT22;13092;51.996;4.458;2023-09-18T06:27:55;20.90;99.90
25112;DHT22;13092;51.996;4.458;2023-09-18T06:30:23;20.80;99.90
25112;DHT22;13092;51.996;4.458;2023-09-18T06:32:51;20.80;99.90
25112;DHT22;13092;51.996;4.458;2023-09-18T06:35:22;20.80;99.90
25112;DHT22;13092;51.996;4.458;2023-09-18T06:37:50;20.80;99.90
25112;DHT22;13092;51.996;4.458;2023-09-18T06:40:21;20.70;99.90
25112;DHT22;13092;51.996;4.458;2023-09-18T06:42:49;20.80;99.90
25112;DHT22;13092;51.996;4.458;2023-09-18T06:45:18;20.80;99.90
25112;DHT22;13092;51.996;4.458;2023-09-18T06:47:46;20.70;99.90
25112;DHT22;13092;51.996;4.458;2023-09-18T06:50:15;20.70;99.90
25112;DHT22;13092;51.996;4.458;2023-09-18T06:52:47;20.90;99.90
25112;DHT22;13092;51.996;4.458;2023-09-18T06:55:16;20.70;99.90
25112;DHT22;13092;51.996;4.458;2023-09-18T06:57:44;20.60;99.90
25112;DHT22;13092;51.996;4.458;2023-09-18T07:00:15;20.70;99.90
25112;DHT22;13092;51.996;4.458;2023-09-18T07:02:45;20.70;99.90
25112;DHT22;13092;51.996;4.458;2023-09-18T07:05:14;20.70;99.90
25112;DHT22;13092;51.996;4.458;2023-09-18T07:07:42;20.70;99.90
25112;DHT22;13092;51.996;4.458;2023-09-18T07:10:11;20.70;99.90
25112;DHT22;13092;51.996;4.458;2023-09-18T07:12:39;20.60;99.90
25112;DHT22;13092;51.996;4.458;2023-09-18T07:15:08;20.70;99.90
25112;DHT22;13092;51.996;4.458;2023-09-18T07:17:36;20.60;99.90
25112;DHT22;13092;51.996;4.458;2023-09-18T07:20:05;20.60;99.90
25112;DHT22;13092;51.996;4.458;2023-09-18T07:22:45;20.70;99.90
25112;DHT22;13092;51.996;4.458;2023-09-18T07:25:15;20.70;99.90
25112;DHT22;13092;51.996;4.458;2023-09-18T07:27:43;20.70;99.90
25112;DHT22;13092;51.996;4.458;2023-09-18T07:30:12;20.70;99.90
25112;DHT22;13092;51.996;4.458;2023-09-18T07:32:43;20.70;99.90
25112;DHT22;13092;51.996;4.458;2023-09-18T07:35:12;20.80;99.90
25112;DHT22;13092;51.996;4.458;2023-09-18T07:37:41;20.80;99.90
25112;DHT22;13092;51.996;4.458;2023-09-18T07:40:11;20.80;99.90
25112;DHT22;13092;51.996;4.458;2023-09-18T07:42:40;20.80;99.90
25112;DHT22;13092;51.996;4.458;2023-09-18T07:45:10;20.80;99.90
25112;DHT22;13092;51.996;4.458;2023-09-18T07:47:38;20.80;99.90
25112;DHT22;13092;51.996;4.458;2023-09-18T07:50:07;20.80;99.90
25112;DHT22;13092;51.996;4.458;2023-09-18T07:52:36;20.80;99.90
25112;DHT22;13092;51.996;4.458;2023-09-18T07:55:05;20.80;99.90
25112;DHT22;13092;51.996;4.458;2023-09-18T07:57:33;20.80;99.90
25112;DHT22;13092;51.996;4.458;2023-09-18T08:00:05;20.80;99.90
25112;DHT22;13092;51.996;4.458;2023-09-18T08:02:38;20.80;99.90
25112;DHT22;13092;51.996;4.458;2023-09-18T08:05:07;20.90;99.90
25112;DHT22;13092;51.996;4.458;2023-09-18T08:07:35;20.90;99.90
25112;DHT22;13092;51.996;4.458;2023-09-18T08:10:04;20.90;99.90
25112;DHT22;13092;51.996;4.458;2023-09-18T08:12:35;21.00;99.90
25112;DHT22;13092;51.996;4.458;2023-09-18T08:15:06;21.00;99.90
25112;DHT22;13092;51.996;4.458;2023-09-18T08:17:35;21.00;99.90
25112;DHT22;13092;51.996;4.458;2023-09-18T08:20:04;21.00;99.90
25112;DHT22;13092;51.996;4.458;2023-09-18T08:22:39;21.00;99.90
25112;DHT22;13092;51.996;4.458;2023-09-18T08:25:07;21.00;99.90
25112;DHT22;13092;51.996;4.458;2023-09-18T08:27:38;21.10;99.90
25112;DHT22;13092;51.996;4.458;2023-09-18T08:30:15;21.10;99.90
25112;DHT22;13092;51.996;4.458;2023-09-18T08:32:44;21.10;99.90
25112;DHT22;13092;51.996;4.458;2023-09-18T08:35:13;21.20;99.90
25112;DHT22;13092;51.996;4.458;2023-09-18T08:37:41;21.10;99.90
25112;DHT22;13092;51.996;4.458;2023-09-18T08:40:10;21.20;99.90
25112;DHT22;13092;51.996;4.458;2023-09-18T08:42:45;21.20;99.90
25112;DHT22;13092;51.996;4.458;2023-09-18T08:45:21;21.10;99.90
25112;DHT22;13092;51.996;4.458;2023-09-18T08:47:51;21.10;99.90
25112;DHT22;13092;51.996;4.458;2023-09-18T08:50:21;21.10;99.90
25112;DHT22;13092;51.996;4.458;2023-09-18T08:52:49;21.20;99.90
25112;DHT22;13092;51.996;4.458;2023-09-18T08:55:18;21.20;99.90
25112;DHT22;13092;51.996;4.458;2023-09-18T08:57:47;21.20;99.90
25112;DHT22;13092;51.996;4.458;2023-09-18T09:00:18;21.20;99.90
25112;DHT22;13092;51.996;4.458;2023-09-18T09:02:46;21.10;99.90
25112;DHT22;13092;51.996;4.458;2023-09-18T09:05:16;21.20;99.90
25112;DHT22;13092;51.996;4.458;2023-09-18T09:07:44;21.20;99.90
25112;DHT22;13092;51.996;4.458;2023-09-18T09:10:12;21.30;99.90
25112;DHT22;13092;51.996;4.458;2023-09-18T09:12:51;21.30;99.90
25112;DHT22;13092;51.996;4.458;2023-09-18T09:15:24;21.30;99.90
25112;DHT22;13092;51.996;4.458;2023-09-18T09:18:02;21.40;99.90
25112;DHT22;13092;51.996;4.458;2023-09-18T09:20:31;21.30;99.90
25112;DHT22;13092;51.996;4.458;2023-09-18T09:23:01;21.40;99.90
25112;DHT22;13092;51.996;4.458;2023-09-18T09:25:30;21.40;99.90
25112;DHT22;13092;51.996;4.458;2023-09-18T09:28:01;21.40;99.90
25112;DHT22;13092;51.996;4.458;2023-09-18T09:30:34;21.30;99.90
25112;DHT22;13092;51.996;4.458;2023-09-18T09:33:05;21.30;99.90
25112;DHT22;13092;51.996;4.458;2023-09-18T09:35:35;21.30;99.90
25112;DHT22;13092;51.996;4.458;2023-09-18T09:38:08;21.30;99.90
25112;DHT22;13092;51.996;4.458;2023-09-18T09:40:39;21.50;99.90
25112;DHT22;13092;51.996;4.458;2023-09-18T09:43:09;21.60;99.90
25112;DHT22;13092;51.996;4.458;2023-09-18T09:45:40;21.70;99.90
25112;DHT22;13092;51.996;4.458;2023-09-18T09:48:09;21.80;99.90
25112;DHT22;13092;51.996;4.458;2023-09-18T09:50:44;21.70;99.90
25112;DHT22;13092;51.996;4.458;2023-09-18T09:53:14;21.80;99.90
25112;DHT22;13092;51.996;4.458;2023-09-18T09:55:43;21.90;99.90
25112;DHT22;13092;51.996;4.458;2023-09-18T09:58:11;22.10;99.90
25112;DHT22;13092;51.996;4.458;2023-09-18T10:00:45;22.10;99.90
25112;DHT22;13092;51.996;4.458;2023-09-18T10:03:16;22.40;99.90
25112;DHT22;13092;51.996;4.458;2023-09-18T10:05:46;22.30;99.90
25112;DHT22;13092;51.996;4.458;2023-09-18T10:08:16;22.30;99.90
25112;DHT22;13092;51.996;4.458;2023-09-18T10:10:46;22.30;99.90
25112;DHT22;13092;51.996;4.458;2023-09-18T10:13:17;22.30;99.90
25112;DHT22;13092;51.996;4.458;2023-09-18T10:15:52;22.30;99.90
25112;DHT22;13092;51.996;4.458;2023-09-18T10:18:27;22.30;99.90
25112;DHT22;13092;51.996;4.458;2023-09-18T10:21:03;22.40;99.90
25112;DHT22;13092;51.996;4.458;2023-09-18T10:23:41;22.40;99.90
25112;DHT22;13092;51.996;4.458;2023-09-18T10:26:23;22.40;99.90
25112;DHT22;13092;51.996;4.458;2023-09-18T10:28:53;22.30;99.90
25112;DHT22;13092;51.996;4.458;2023-09-18T10:31:28;22.40;99.90
25112;DHT22;13092;51.996;4.458;2023-09-18T10:33:57;22.50;99.90
25112;DHT22;13092;51.996;4.458;2023-09-18T10:36:28;22.60;99.90
25112;DHT22;13092;51.996;4.458;2023-09-18T10:39:01;22.70;99.90
25112;DHT22;13092;51.996;4.458;2023-09-18T10:41:35;22.70;99.90
25112;DHT22;13092;51.996;4.458;2023-09-18T10:44:05;22.70;99.90
25112;DHT22;13092;51.996;4.458;2023-09-18T10:46:35;22.80;99.90
25112;DHT22;13092;51.996;4.458;2023-09-18T10:49:04;22.80;99.90
25112;DHT22;13092;51.996;4.458;2023-09-18T10:51:32;22.90;99.90
25112;DHT22;13092;51.996;4.458;2023-09-18T10:54:01;22.80;99.90
25112;DHT22;13092;51.996;4.458;2023-09-18T10:56:31;22.90;99.90
25112;DHT22;13092;51.996;4.458;2023-09-18T10:59:01;22.90;99.90
25112;DHT22;13092;51.996;4.458;2023-09-18T11:01:31;23.00;99.90
25112;DHT22;13092;51.996;4.458;2023-09-18T11:04:03;23.00;99.90
25112;DHT22;13092;51.996;4.458;2023-09-18T11:07:04;23.00;99.90
25112;DHT22;13092;51.996;4.458;2023-09-18T11:09:41;23.10;99.90
25112;DHT22;13092;51.996;4.458;2023-09-18T11:12:10;23.20;99.90
25112;DHT22;13092;51.996;4.458;2023-09-18T11:14:43;23.30;99.90
25112;DHT22;13092;51.996;4.458;2023-09-18T11:17:42;23.60;99.90
25112;DHT22;13092;51.996;4.458;2023-09-18T11:20:17;23.50;99.90
25112;DHT22;13092;51.996;4.458;2023-09-18T11:22:47;23.70;99.90
25112;DHT22;13092;51.996;4.458;2023-09-18T11:25:38;23.60;99.90
25112;DHT22;13092;51.996;4.458;2023-09-18T11:28:08;23.60;99.90
25112;DHT22;13092;51.996;4.458;2023-09-18T11:30:37;23.60;99.90
25112;DHT22;13092;51.996;4.458;2023-09-18T11:33:09;23.50;99.90
25112;DHT22;13092;51.996;4.458;2023-09-18T11:35:51;23.70;99.90
25112;DHT22;13092;51.996;4.458;2023-09-18T11:38:19;23.70;99.90
25112;DHT22;13092;51.996;4.458;2023-09-18T11:40:49;23.60;99.90
25112;DHT22;13092;51.996;4.458;2023-09-18T11:43:22;23.60;99.90
25112;DHT22;13092;51.996;4.458;2023-09-18T11:45:57;23.60;99.90
25112;DHT22;13092;51.996;4.458;2023-09-18T11:48:27;23.60;99.90
25112;DHT22;13092;51.996;4.458;2023-09-18T11:51:00;23.80;99.90
25112;DHT22;13092;51.996;4.458;2023-09-18T11:53:34;23.80;99.90
25112;DHT22;13092;51.996;4.458;2023-09-18T11:56:04;23.80;99.90
25112;DHT22;13092;51.996;4.458;2023-09-18T11:58:45;23.70;99.90
25112;DHT22;13092;51.996;4.458;2023-09-18T12:01:13;23.80;99.90
25112;DHT22;13092;51.996;4.458;2023-09-18T12:03:42;23.80;99.90
25112;DHT22;13092;51.996;4.458;2023-09-18T12:06:13;24.00;99.90
25112;DHT22;13092;51.996;4.458;2023-09-18T12:08:42;24.10;99.90
25112;DHT22;13092;51.996;4.458;2023-09-18T12:11:11;24.10;99.90
25112;DHT22;13092;51.996;4.458;2023-09-18T12:13:46;24.20;99.90
25112;DHT22;13092;51.996;4.458;2023-09-18T12:16:15;24.40;99.90
25112;DHT22;13092;51.996;4.458;2023-09-18T12:18:47;24.40;99.90
25112;DHT22;13092;51.996;4.458;2023-09-18T12:21:17;24.40;99.90
25112;DHT22;13092;51.996;4.458;2023-09-18T12:23:46;24.40;99.90
25112;DHT22;13092;51.996;4.458;2023-09-18T12:26:16;24.20;99.90
25112;DHT22;13092;51.996;4.458;2023-09-18T12:28:46;24.20;99.90
25112;DHT22;13092;51.996;4.458;2023-09-18T12:31:15;24.20;99.90
25112;DHT22;13092;51.996;4.458;2023-09-18T12:33:44;24.10;99.90
25112;DHT22;13092;51.996;4.458;2023-09-18T12:36:18;24.20;99.90
25112;DHT22;13092;51.996;4.458;2023-09-18T12:38:56;24.10;99.90
25112;DHT22;13092;51.996;4.458;2023-09-18T12:41:26;24.20;99.90
25112;DHT22;13092;51.996;4.458;2023-09-18T12:43:59;24.30;99.90
25112;DHT22;13092;51.996;4.458;2023-09-18T12:46:29;24.40;99.90
25112;DHT22;13092;51.996;4.458;2023-09-18T12:48:58;24.40;99.90
25112;DHT22;13092;51.996;4.458;2023-09-18T12:51:32;24.40;99.90
25112;DHT22;13092;51.996;4.458;2023-09-18T12:54:02;24.40;99.90
25112;DHT22;13092;51.996;4.458;2023-09-18T12:56:40;24.50;99.90
25112;DHT22;13092;51.996;4.458;2023-09-18T12:59:09;24.50;99.90
25112;DHT22;13092;51.996;4.458;2023-09-18T13:01:46;24.50;99.90
25112;DHT22;13092;51.996;4.458;2023-09-18T13:04:15;24.50;99.90
25112;DHT22;13092;51.996;4.458;2023-09-18T13:06:44;24.60;99.90
25112;DHT22;13092;51.996;4.458;2023-09-18T13:09:17;24.90;99.90
25112;DHT22;13092;51.996;4.458;2023-09-18T13:11:54;24.70;99.90
25112;DHT22;13092;51.996;4.458;2023-09-18T13:14:22;24.80;99.90
25112;DHT22;13092;51.996;4.458;2023-09-18T13:16:50;24.80;99.90
25112;DHT22;13092;51.996;4.458;2023-09-18T13:19:19;24.70;99.90
25112;DHT22;13092;51.996;4.458;2023-09-18T13:21:47;24.70;99.90
25112;DHT22;13092;51.996;4.458;2023-09-18T13:24:29;24.70;99.90
25112;DHT22;13092;51.996;4.458;2023-09-18T13:26:58;24.70;99.90
25112;DHT22;13092;51.996;4.458;2023-09-18T13:29:27;24.70;99.90
25112;DHT22;13092;51.996;4.458;2023-09-18T13:31:56;24.50;99.90
25112;DHT22;13092;51.996;4.458;2023-09-18T13:34:27;24.40;99.90
25112;DHT22;13092;51.996;4.458;2023-09-18T13:36:57;24.30;99.90
25112;DHT22;13092;51.996;4.458;2023-09-18T13:39:25;24.10;99.90
25112;DHT22;13092;51.996;4.458;2023-09-18T13:41:55;24.10;99.90
25112;DHT22;13092;51.996;4.458;2023-09-18T13:44:23;24.10;99.90
25112;DHT22;13092;51.996;4.458;2023-09-18T13:46:52;24.00;99.90
25112;DHT22;13092;51.996;4.458;2023-09-18T13:49:20;23.90;99.90
25112;DHT22;13092;51.996;4.458;2023-09-18T13:51:53;23.90;99.90
25112;DHT22;13092;51.996;4.458;2023-09-18T13:54:23;23.90;99.90
25112;DHT22;13092;51.996;4.458;2023-09-18T13:56:51;23.80;99.90
25112;DHT22;13092;51.996;4.458;2023-09-18T13:59:25;23.70;99.90
25112;DHT22;13092;51.996;4.458;2023-09-18T14:01:55;23.70;99.90
25112;DHT22;13092;51.996;4.458;2023-09-18T14:04:23;23.60;99.90
25112;DHT22;13092;51.996;4.458;2023-09-18T14:06:51;23.60;99.90
25112;DHT22;13092;51.996;4.458;2023-09-18T14:09:19;23.50;99.90
25112;DHT22;13092;51.996;4.458;2023-09-18T14:11:47;23.40;99.90
25112;DHT22;13092;51.996;4.458;2023-09-18T14:14:16;23.30;99.90
25112;DHT22;13092;51.996;4.458;2023-09-18T14:16:45;23.10;99.90
25112;DHT22;13092;51.996;4.458;2023-09-18T14:19:13;22.80;99.90
25112;DHT22;13092;51.996;4.458;2023-09-18T14:21:41;22.50;99.90
25112;DHT22;13092;51.996;4.458;2023-09-18T14:24:10;22.20;99.90
25112;DHT22;13092;51.996;4.458;2023-09-18T14:26:38;21.80;99.90
25112;DHT22;13092;51.996;4.458;2023-09-18T14:29:08;21.40;99.90
25112;DHT22;13092;51.996;4.458;2023-09-18T14:31:37;21.10;99.90
25112;DHT22;13092;51.996;4.458;2023-09-18T14:34:06;21.10;99.90
25112;DHT22;13092;51.996;4.458;2023-09-18T14:36:36;21.00;99.90
25112;DHT22;13092;51.996;4.458;2023-09-18T14:39:06;21.00;99.90
25112;DHT22;13092;51.996;4.458;2023-09-18T14:41:35;20.90;99.90
25112;DHT22;13092;51.996;4.458;2023-09-18T14:44:05;20.90;99.90
25112;DHT22;13092;51.996;4.458;2023-09-18T14:46:35;20.90;99.90
25112;DHT22;13092;51.996;4.458;2023-09-18T14:49:07;20.80;99.90
25112;DHT22;13092;51.996;4.458;2023-09-18T14:51:35;20.80;99.90
25112;DHT22;13092;51.996;4.458;2023-09-18T14:54:03;20.80;99.90
25112;DHT22;13092;51.996;4.458;2023-09-18T14:56:33;20.70;99.90
25112;DHT22;13092;51.996;4.458;2023-09-18T14:59:02;20.60;99.90
25112;DHT22;13092;51.996;4.458;2023-09-18T15:01:32;20.50;99.90
25112;DHT22;13092;51.996;4.458;2023-09-18T15:04:00;20.60;99.90
25112;DHT22;13092;51.996;4.458;2023-09-18T15:06:30;20.50;99.90
25112;DHT22;13092;51.996;4.458;2023-09-18T15:08:58;20.70;99.90
25112;DHT22;13092;51.996;4.458;2023-09-18T15:11:26;20.80;99.90
25112;DHT22;13092;51.996;4.458;2023-09-18T15:13:56;21.10;99.90
25112;DHT22;13092;51.996;4.458;2023-09-18T15:16:24;21.20;99.90
25112;DHT22;13092;51.996;4.458;2023-09-18T15:18:53;21.40;99.90
25112;DHT22;13092;51.996;4.458;2023-09-18T15:21:24;21.50;99.90
25112;DHT22;13092;51.996;4.458;2023-09-18T15:23:54;21.60;99.90
25112;DHT22;13092;51.996;4.458;2023-09-18T15:26:23;21.70;99.90
25112;DHT22;13092;51.996;4.458;2023-09-18T15:28:51;21.70;99.90
25112;DHT22;13092;51.996;4.458;2023-09-18T15:31:19;21.70;99.90
25112;DHT22;13092;51.996;4.458;2023-09-18T15:33:47;21.70;99.90
25112;DHT22;13092;51.996;4.458;2023-09-18T15:36:16;21.90;99.90
25112;DHT22;13092;51.996;4.458;2023-09-18T15:38:44;21.90;99.90
25112;DHT22;13092;51.996;4.458;2023-09-18T15:41:14;21.90;99.90
25112;DHT22;13092;51.996;4.458;2023-09-18T15:43:42;21.90;99.90
25112;DHT22;13092;51.996;4.458;2023-09-18T15:46:12;21.80;99.90
25112;DHT22;13092;51.996;4.458;2023-09-18T15:48:42;21.70;99.90